Time;durP1;ratioP1;P1;durP2;ratioP2;P2;SDS_P1;SDS_P2;PMS_P1;PMS_P2;Temp;Humidity;BMP_temperature;BMP_pressure;BME280_temperature;BME280_humidity;BME280_pressure;Samples;Min_cycle;Max_cycle;Signal;HPM_P1;HPM_P2
2021/12/17 00:01:13;;;;;;;56.10;13.73;;;8.80;99.90;;;;;;5065496;28;20461;-65
2021/12/17 00:03:45;;;;;;;62.65;14.15;;;8.70;99.90;;;;;;5063857;28;20048;-65
2021/12/17 00:06:17;;;;;;;60.42;12.43;;;8.70;99.90;;;;;;5068120;28;20020;-65
2021/12/17 00:08:50;;;;;;;60.90;15.40;;;8.80;99.90;;;;;;5065349;28;20044;-66
2021/12/17 00:11:17;;;;;;;57.80;16.00;;;8.80;99.90;;;;;;5063283;28;20331;-65
2021/12/17 00:13:43;;;;;;;54.97;11.60;;;8.80;99.90;;;;;;5065464;28;20040;-65
2021/12/17 00:16:17;;;;;;;63.03;13.20;;;8.90;99.90;;;;;;5062721;28;20124;-65
2021/12/17 00:48:46;;;;;;;46.35;13.30;;;9.00;99.90;;;;;;5063560;28;20040;-65
2021/12/17 00:54:07;;;;;;;55.03;14.60;;;8.90;99.90;;;;;;5070601;28;20039;-65
2021/12/17 00:56:33;;;;;;;62.10;16.85;;;8.80;99.90;;;;;;5071118;28;20035;-65
2021/12/17 00:58:58;;;;;;;65.28;13.73;;;8.90;99.90;;;;;;5070455;28;20488;-65
2021/12/17 01:01:25;;;;;;;54.10;15.30;;;9.00;99.90;;;;;;5078244;28;20555;-65
2021/12/17 01:03:51;;;;;;;50.95;14.52;;;8.90;99.90;;;;;;5070298;28;20463;-65
2021/12/17 01:06:18;;;;;;;62.80;15.38;;;9.10;99.90;;;;;;5076611;28;20161;-65
2021/12/17 01:08:44;;;;;;;60.83;16.42;;;9.10;99.90;;;;;;5084615;28;20056;-65
2021/12/17 01:11:10;;;;;;;45.78;12.98;;;9.10;99.90;;;;;;5075107;28;20031;-65
2021/12/17 01:13:39;;;;;;;61.40;14.70;;;9.00;99.90;;;;;;5071746;28;20388;-65
2021/12/17 01:16:04;;;;;;;55.60;14.50;;;8.90;99.90;;;;;;5075735;28;20024;-65
2021/12/17 01:18:44;;;;;;;64.65;13.93;;;9.00;99.90;;;;;;5069244;28;20051;-65
2021/12/17 01:21:31;;;;;;;51.35;15.40;;;9.00;99.90;;;;;;5076423;28;20032;-65
2021/12/17 01:35:38;;;;;;;54.75;13.52;;;9.10;99.90;;;;;;5070510;28;20059;-66
2021/12/17 01:43:04;;;;;;;61.22;15.55;;;9.00;99.90;;;;;;5075042;28;20061;-65
2021/12/17 01:45:35;;;;;;;54.08;14.05;;;9.20;99.90;;;;;;5074129;28;20430;-65
2021/12/17 01:48:04;;;;;;;63.97;13.40;;;9.20;99.90;;;;;;5071974;28;20024;-66
2021/12/17 01:56:30;;;;;;;53.67;13.45;;;8.90;99.90;;;;;;5081112;28;20036;-65
2021/12/17 02:01:41;;;;;;;50.63;13.90;;;9.00;99.90;;;;;;5079364;28;20088;-65
2021/12/17 02:04:07;;;;;;;45.33;11.93;;;9.10;99.90;;;;;;5068901;28;20023;-65
2021/12/17 02:06:36;;;;;;;58.97;15.23;;;9.20;99.90;;;;;;5078079;28;20107;-65
2021/12/17 02:09:15;;;;;;;42.58;14.05;;;9.10;99.90;;;;;;5071514;28;20111;-65
2021/12/17 02:19:48;;;;;;;53.95;14.23;;;9.20;99.90;;;;;;5075083;28;20051;-65
2021/12/17 02:23:00;;;;;;;42.28;12.10;;;9.20;99.90;;;;;;5072597;28;20029;-64
2021/12/17 02:33:05;;;;;;;49.28;13.85;;;9.20;99.90;;;;;;5071373;28;20033;-64
2021/12/17 02:35:35;;;;;;;51.88;11.02;;;9.10;99.90;;;;;;5067676;28;20358;-63
2021/12/17 02:38:02;;;;;;;45.05;11.43;;;9.10;99.90;;;;;;5070666;28;20012;-63
2021/12/17 02:45:34;;;;;;;52.78;15.00;;;9.10;99.90;;;;;;5073272;28;20029;-63
2021/12/17 02:47:59;;;;;;;44.53;15.82;;;9.00;99.90;;;;;;5076375;28;20017;-63
2021/12/17 02:50:25;;;;;;;47.53;13.20;;;9.10;99.90;;;;;;5069759;28;20032;-64
2021/12/17 02:52:55;;;;;;;42.75;11.57;;;9.10;99.90;;;;;;5068239;28;20027;-64
2021/12/17 02:55:22;;;;;;;33.72;12.20;;;9.10;99.90;;;;;;5067188;28;20175;-64
2021/12/17 02:57:49;;;;;;;48.20;14.43;;;9.10;99.90;;;;;;5072039;28;20031;-64
2021/12/17 03:00:15;;;;;;;56.70;13.98;;;9.20;99.90;;;;;;5071076;28;20397;-64
2021/12/17 03:02:44;;;;;;;47.70;12.90;;;9.10;99.90;;;;;;5072374;28;20108;-64
2021/12/17 03:05:10;;;;;;;53.58;14.48;;;9.20;99.90;;;;;;5071850;28;20483;-64
2021/12/17 03:07:39;;;;;;;56.75;14.02;;;9.20;99.90;;;;;;5075498;28;20021;-64
2021/12/17 03:10:09;;;;;;;55.30;13.63;;;9.00;99.90;;;;;;5069126;28;20061;-64
2021/12/17 03:12:50;;;;;;;43.83;12.68;;;8.90;99.90;;;;;;5070086;28;20021;-64
2021/12/17 03:15:30;;;;;;;44.35;13.40;;;8.90;99.90;;;;;;5073181;28;20419;-64
2021/12/17 03:18:37;;;;;;;41.38;12.55;;;9.00;99.90;;;;;;5063262;28;20043;-64
2021/12/17 03:23:40;;;;;;;47.05;11.27;;;8.80;99.90;;;;;;5078473;28;20594;-64
2021/12/17 03:26:12;;;;;;;38.10;12.98;;;8.80;99.90;;;;;;5066982;28;20060;-64
2021/12/17 03:28:39;;;;;;;36.22;10.75;;;9.00;99.90;;;;;;5064277;28;20078;-64
2021/12/17 03:31:06;;;;;;;45.25;12.63;;;8.80;99.90;;;;;;5077167;28;20496;-64
2021/12/17 03:33:33;;;;;;;49.65;12.23;;;8.80;99.90;;;;;;5074914;28;20033;-64
2021/12/17 03:35:59;;;;;;;37.33;11.07;;;8.80;99.90;;;;;;5079935;28;20024;-64
2021/12/17 03:38:26;;;;;;;46.55;11.50;;;8.90;99.90;;;;;;5071646;28;20555;-64
2021/12/17 03:41:03;;;;;;;45.35;11.48;;;9.10;99.90;;;;;;5068986;28;20713;-64
2021/12/17 03:43:30;;;;;;;56.30;13.30;;;9.00;99.90;;;;;;5062914;28;20090;-64
2021/12/17 03:45:57;;;;;;;48.15;13.05;;;9.10;99.90;;;;;;5068544;28;20013;-64
2021/12/17 03:48:23;;;;;;;54.85;11.48;;;9.20;99.90;;;;;;5071895;28;20033;-64
2021/12/17 03:50:49;;;;;;;41.83;12.60;;;9.10;99.90;;;;;;5064637;28;20040;-63
2021/12/17 03:53:15;;;;;;;50.30;12.80;;;9.20;99.90;;;;;;5071250;28;20074;-64
2021/12/17 03:55:40;;;;;;;39.47;12.27;;;9.10;99.90;;;;;;5069221;28;20125;-64
2021/12/17 03:58:06;;;;;;;52.53;13.63;;;9.00;99.90;;;;;;5068121;28;20019;-64
2021/12/17 04:00:32;;;;;;;55.42;11.98;;;8.90;99.90;;;;;;5068671;28;20036;-64
2021/12/17 04:02:58;;;;;;;45.90;13.77;;;8.80;99.90;;;;;;5073644;28;20201;-64
2021/12/17 04:05:25;;;;;;;38.70;11.27;;;8.70;99.90;;;;;;5068289;28;20336;-64
2021/12/17 04:07:50;;;;;;;46.67;11.95;;;8.70;99.90;;;;;;5072648;28;20105;-64
2021/12/17 04:10:18;;;;;;;38.35;10.70;;;8.70;99.90;;;;;;5074568;28;20063;-64
2021/12/17 04:12:55;;;;;;;52.97;13.52;;;8.80;99.90;;;;;;5070441;28;20451;-64
2021/12/17 04:15:33;;;;;;;39.60;11.98;;;9.00;99.90;;;;;;5070458;28;20016;-64
2021/12/17 04:17:59;;;;;;;45.85;11.50;;;9.00;99.90;;;;;;5074132;28;20129;-64
2021/12/17 04:20:25;;;;;;;46.17;13.32;;;9.00;99.90;;;;;;5069416;28;20523;-64
2021/12/17 04:22:51;;;;;;;37.13;11.57;;;8.80;99.90;;;;;;5073018;28;20233;-64
2021/12/17 04:25:17;;;;;;;35.47;11.23;;;8.80;99.90;;;;;;5072651;28;20461;-64
2021/12/17 04:27:42;;;;;;;43.63;11.18;;;8.80;99.90;;;;;;5066854;28;20029;-64
2021/12/17 04:30:09;;;;;;;50.58;10.93;;;8.80;99.90;;;;;;5081941;28;20545;-64
2021/12/17 04:32:34;;;;;;;54.03;13.57;;;8.80;99.90;;;;;;5072830;28;20025;-64
2021/12/17 04:35:00;;;;;;;47.33;12.40;;;8.70;99.90;;;;;;5074450;28;20020;-64
2021/12/17 04:37:26;;;;;;;37.55;11.55;;;8.70;99.90;;;;;;5076703;28;20030;-64
2021/12/17 04:39:52;;;;;;;46.40;11.93;;;8.70;99.90;;;;;;5073485;28;20020;-64
2021/12/17 04:42:26;;;;;;;42.03;11.27;;;8.60;99.90;;;;;;5073419;28;20094;-64
2021/12/17 04:44:55;;;;;;;44.10;10.98;;;8.80;99.90;;;;;;5068313;28;20032;-64
2021/12/17 04:58:03;;;;;;;35.50;10.88;;;8.80;99.90;;;;;;5060358;28;20024;-64
2021/12/17 05:00:30;;;;;;;37.38;12.48;;;9.00;99.90;;;;;;5066982;28;20481;-64
2021/12/17 05:02:58;;;;;;;52.45;13.02;;;8.90;99.90;;;;;;5075895;28;20199;-64
2021/12/17 05:05:29;;;;;;;39.17;11.13;;;8.70;99.90;;;;;;5074390;28;20277;-64
2021/12/17 05:08:00;;;;;;;31.88;10.57;;;8.80;99.90;;;;;;5074932;28;21699;-63
2021/12/17 05:18:35;;;;;;;41.45;11.18;;;8.70;99.90;;;;;;5072534;28;20543;-63
2021/12/17 05:21:06;;;;;;;37.33;10.98;;;8.70;99.90;;;;;;5070942;28;20489;-64
2021/12/17 05:23:37;;;;;;;42.40;12.90;;;8.70;99.90;;;;;;5078021;28;20027;-63
2021/12/17 05:26:08;;;;;;;55.50;14.00;;;8.60;99.90;;;;;;5081193;28;20023;-63
2021/12/17 05:28:34;;;;;;;33.92;11.27;;;8.60;99.90;;;;;;5075582;28;20373;-63
2021/12/17 05:31:00;;;;;;;45.13;11.10;;;8.60;99.90;;;;;;5084173;28;20097;-63
2021/12/17 05:33:26;;;;;;;39.03;11.45;;;8.60;99.90;;;;;;5074456;28;20519;-63
2021/12/17 05:35:53;;;;;;;40.53;10.63;;;8.60;99.90;;;;;;5074222;28;20017;-63
2021/12/17 05:38:20;;;;;;;37.90;10.68;;;8.60;99.90;;;;;;5073996;28;20439;-63
2021/12/17 05:40:46;;;;;;;35.03;10.77;;;8.70;99.90;;;;;;5079598;28;20052;-64
2021/12/17 05:43:14;;;;;;;38.35;10.50;;;8.70;99.90;;;;;;5069912;28;20496;-63
2021/12/17 05:48:23;;;;;;;28.25;10.43;;;8.60;99.90;;;;;;5070359;28;20020;-63
2021/12/17 05:50:52;;;;;;;33.25;11.63;;;8.60;99.90;;;;;;5073195;28;20089;-63
2021/12/17 05:53:19;;;;;;;35.85;9.93;;;8.60;99.90;;;;;;5070571;28;20017;-63
2021/12/17 05:55:45;;;;;;;33.65;10.70;;;8.60;99.90;;;;;;5080008;28;20034;-63
2021/12/17 05:58:11;;;;;;;31.77;8.45;;;8.60;99.90;;;;;;5075726;28;20024;-63
2021/12/17 06:00:39;;;;;;;32.25;9.60;;;8.60;99.90;;;;;;5067499;28;20039;-63
2021/12/17 06:03:04;;;;;;;43.78;10.75;;;8.70;99.90;;;;;;5073626;28;20020;-63
2021/12/17 06:05:30;;;;;;;35.40;9.27;;;8.60;99.90;;;;;;5070030;28;20492;-63
2021/12/17 06:07:57;;;;;;;36.85;10.32;;;8.50;99.90;;;;;;5077341;28;20193;-63
2021/12/17 06:10:23;;;;;;;37.83;8.65;;;8.50;99.90;;;;;;5070929;28;20396;-63
2021/12/17 06:12:48;;;;;;;28.45;7.90;;;8.60;99.90;;;;;;5072170;28;20032;-63
2021/12/17 06:15:16;;;;;;;30.08;8.18;;;8.50;99.90;;;;;;5069545;28;20108;-63
2021/12/17 06:17:43;;;;;;;29.20;8.65;;;8.50;99.90;;;;;;5068714;28;20417;-63
2021/12/17 06:20:11;;;;;;;29.15;9.18;;;8.50;99.90;;;;;;5063887;28;20032;-63
2021/12/17 06:22:37;;;;;;;48.28;12.02;;;8.40;99.90;;;;;;5065039;28;20107;-63
2021/12/17 06:25:05;;;;;;;40.63;10.98;;;8.50;99.90;;;;;;5068776;28;20263;-63
2021/12/17 06:27:31;;;;;;;35.17;11.13;;;8.40;99.90;;;;;;5071309;28;20232;-63
2021/12/17 06:29:57;;;;;;;36.95;10.27;;;8.50;99.90;;;;;;5079472;28;20058;-63
2021/12/17 06:32:24;;;;;;;25.65;10.23;;;8.50;99.90;;;;;;5070093;28;20073;-63
2021/12/17 06:34:50;;;;;;;43.28;10.32;;;8.50;99.90;;;;;;5074417;28;20472;-63
2021/12/17 06:37:17;;;;;;;27.90;6.60;;;8.40;99.90;;;;;;5068626;28;20056;-63
2021/12/17 06:39:44;;;;;;;25.15;7.43;;;8.50;99.90;;;;;;5069638;28;20476;-63
2021/12/17 06:42:10;;;;;;;31.02;7.43;;;8.50;99.90;;;;;;5077105;28;20093;-63
2021/12/17 06:44:37;;;;;;;26.45;9.80;;;8.40;99.90;;;;;;5077128;28;20027;-63
2021/12/17 06:47:26;;;;;;;27.48;6.97;;;8.40;99.90;;;;;;5073767;28;20020;-63
2021/12/17 06:54:40;;;;;;;25.65;7.00;;;8.40;99.90;;;;;;5076512;28;20069;-63
2021/12/17 06:55:51;;;;;;;25.60;8.27;;;8.30;99.90;;;;;;5079162;28;20122;-63
2021/12/17 06:58:45;;;;;;;27.88;8.60;;;8.40;99.90;;;;;;5077730;28;20501;-63
2021/12/17 07:11:50;;;;;;;23.80;6.65;;;8.30;99.90;;;;;;5077937;28;20033;-63
2021/12/17 07:17:14;;;;;;;16.27;6.15;;;8.30;99.90;;;;;;5075822;28;20032;-63
2021/12/17 07:22:47;;;;;;;24.33;7.55;;;8.30;99.90;;;;;;5072863;28;19924;-64
2021/12/17 07:35:55;;;;;;;20.38;6.95;;;8.30;99.90;;;;;;5042488;28;20044;-63
2021/12/17 07:41:17;;;;;;;28.23;6.45;;;8.30;99.90;;;;;;5059242;28;20123;-63
2021/12/17 07:43:54;;;;;;;25.23;8.95;;;8.40;99.90;;;;;;5074362;28;20028;-63
2021/12/17 07:46:20;;;;;;;25.95;7.47;;;8.30;99.90;;;;;;5065378;28;20063;-63
2021/12/17 07:48:46;;;;;;;42.60;9.38;;;8.30;99.90;;;;;;5068390;28;20024;-63
2021/12/17 07:51:14;;;;;;;29.48;8.73;;;8.30;99.90;;;;;;5067271;28;20047;-63
2021/12/17 07:53:40;;;;;;;34.13;9.10;;;8.20;99.90;;;;;;5074216;28;20028;-63
2021/12/17 07:56:08;;;;;;;34.65;8.20;;;8.20;99.90;;;;;;5075371;28;20546;-63
2021/12/17 07:58:34;;;;;;;33.72;8.32;;;8.30;99.90;;;;;;5067462;28;20084;-63
2021/12/17 08:01:00;;;;;;;40.78;10.90;;;8.30;99.90;;;;;;5068808;28;20170;-63
2021/12/17 08:03:26;;;;;;;35.55;9.57;;;8.20;99.90;;;;;;5074077;28;20640;-63
2021/12/17 08:05:53;;;;;;;23.05;7.75;;;8.10;99.90;;;;;;5068625;28;20028;-63
2021/12/17 08:08:19;;;;;;;30.92;7.45;;;8.30;99.90;;;;;;5068653;28;20028;-63
2021/12/17 08:10:49;;;;;;;23.58;7.07;;;8.20;99.90;;;;;;5077225;28;20038;-63
2021/12/17 08:13:22;;;;;;;25.67;6.50;;;8.20;99.90;;;;;;5070878;28;20058;-63
2021/12/17 08:16:07;;;;;;;21.25;5.82;;;8.10;99.90;;;;;;5084922;28;20093;-63
2021/12/17 08:27:25;;;;;;;21.10;6.55;;;8.20;99.90;;;;;;5072917;28;20055;-63
2021/12/17 08:30:08;;;;;;;22.45;5.38;;;8.10;99.90;;;;;;5075224;28;20032;-63
2021/12/17 08:32:34;;;;;;;13.20;4.70;;;8.20;99.90;;;;;;5073887;28;20086;-63
2021/12/17 08:35:00;;;;;;;17.52;5.93;;;8.40;99.90;;;;;;5070458;28;20032;-63
2021/12/17 08:37:26;;;;;;;15.10;5.22;;;8.40;99.90;;;;;;5073211;28;20032;-63
2021/12/17 08:39:51;;;;;;;20.83;5.55;;;8.40;99.90;;;;;;5074853;28;20107;-63
2021/12/17 08:42:17;;;;;;;13.48;4.65;;;8.30;99.90;;;;;;5071864;28;20036;-63
2021/12/17 08:44:42;;;;;;;15.23;5.60;;;8.30;99.90;;;;;;5070009;28;20119;-64
2021/12/17 08:47:10;;;;;;;25.40;6.20;;;8.30;99.90;;;;;;5071084;28;20028;-63
2021/12/17 08:49:39;;;;;;;14.23;3.63;;;8.30;99.90;;;;;;5067701;28;20511;-63
2021/12/17 08:52:06;;;;;;;14.82;3.53;;;8.30;99.90;;;;;;5069427;28;20120;-63
2021/12/17 08:54:32;;;;;;;15.20;6.35;;;8.30;99.90;;;;;;5069501;28;20055;-64
2021/12/17 08:56:57;;;;;;;16.10;3.92;;;8.20;99.90;;;;;;5068014;28;20782;-64
2021/12/17 08:59:23;;;;;;;12.52;4.68;;;8.30;99.90;;;;;;5072851;28;20036;-64
2021/12/17 09:01:49;;;;;;;13.73;4.80;;;8.10;99.90;;;;;;5074116;28;20407;-62
2021/12/17 09:04:15;;;;;;;21.45;6.25;;;8.20;99.90;;;;;;5073677;28;20032;-62
2021/12/17 09:06:41;;;;;;;20.13;5.10;;;8.30;99.90;;;;;;5072305;28;20035;-63
2021/12/17 09:09:07;;;;;;;22.52;4.93;;;8.40;99.90;;;;;;5065843;28;20511;-63
2021/12/17 09:11:33;;;;;;;9.63;3.38;;;8.30;99.90;;;;;;5074938;28;20136;-64
2021/12/17 09:14:01;;;;;;;10.80;3.92;;;8.20;99.90;;;;;;5070349;28;20427;-64
2021/12/17 09:16:27;;;;;;;19.38;5.55;;;8.20;99.90;;;;;;5071443;28;20051;-62
2021/12/17 09:18:55;;;;;;;14.48;4.88;;;8.30;99.90;;;;;;5075697;28;20131;-66
2021/12/17 09:21:21;;;;;;;13.18;4.03;;;8.30;99.90;;;;;;5074517;28;20070;-63
2021/12/17 09:23:47;;;;;;;14.57;5.00;;;8.20;99.90;;;;;;5068061;28;20045;-64
2021/12/17 09:26:14;;;;;;;13.75;3.35;;;8.20;99.90;;;;;;5066713;28;20020;-64
2021/12/17 09:28:40;;;;;;;14.15;4.05;;;8.30;99.90;;;;;;5073418;28;20037;-62
2021/12/17 09:31:11;;;;;;;17.45;4.15;;;8.30;99.90;;;;;;5082795;28;20042;-64
2021/12/17 09:33:37;;;;;;;12.82;3.53;;;8.30;99.90;;;;;;5073819;28;20021;-65
2021/12/17 09:36:04;;;;;;;11.80;3.65;;;8.30;99.90;;;;;;5070321;28;20055;-62
2021/12/17 09:38:30;;;;;;;12.75;3.80;;;8.50;99.90;;;;;;5075854;28;20454;-62
2021/12/17 09:40:55;;;;;;;18.92;5.10;;;8.40;99.90;;;;;;5069203;28;20123;-65
2021/12/17 09:43:21;;;;;;;17.30;4.38;;;8.40;99.90;;;;;;5076799;28;20544;-64
2021/12/17 09:45:47;;;;;;;12.23;4.05;;;8.30;99.90;;;;;;5078974;28;20032;-65
2021/12/17 09:48:13;;;;;;;16.48;6.05;;;8.50;99.90;;;;;;5076066;28;20088;-63
2021/12/17 09:50:39;;;;;;;14.77;3.85;;;8.40;99.90;;;;;;5073369;28;20036;-62
2021/12/17 09:53:05;;;;;;;7.65;3.22;;;8.40;99.90;;;;;;5075474;28;20021;-62
2021/12/17 09:55:30;;;;;;;10.95;3.72;;;8.60;99.90;;;;;;5071400;28;20425;-62
2021/12/17 09:57:56;;;;;;;12.93;4.10;;;8.50;99.90;;;;;;5068735;28;20051;-62
2021/12/17 10:00:26;;;;;;;15.75;4.90;;;8.60;99.90;;;;;;5067151;28;20123;-62
2021/12/17 10:02:54;;;;;;;13.77;4.40;;;8.70;99.90;;;;;;5074401;28;20089;-65
2021/12/17 10:05:25;;;;;;;19.45;4.13;;;8.70;99.90;;;;;;5073745;28;20877;-65
2021/12/17 10:07:58;;;;;;;;;;;8.60;99.90;;;;;;5076630;28;20036;-65
2021/12/17 10:10:40;;;;;;;16.10;4.18;;;8.80;99.90;;;;;;5078848;28;19919;-65
2021/12/17 10:13:10;;;;;;;15.32;4.35;;;8.70;99.90;;;;;;5069503;28;20472;-65
2021/12/17 10:15:38;;;;;;;14.90;4.60;;;8.70;99.90;;;;;;5071088;28;20433;-65
2021/12/17 10:18:04;;;;;;;7.55;2.70;;;8.70;99.90;;;;;;5070170;28;20078;-65
2021/12/17 10:20:33;;;;;;;11.40;4.10;;;8.80;99.90;;;;;;5067932;28;20032;-65
2021/12/17 10:23:04;;;;;;;12.27;3.47;;;8.70;99.90;;;;;;5072429;28;20525;-65
2021/12/17 10:25:30;;;;;;;16.20;4.05;;;8.80;99.90;;;;;;5070655;28;20271;-65
2021/12/17 10:27:59;;;;;;;15.68;5.95;;;8.70;99.90;;;;;;5070870;28;20435;-65
2021/12/17 10:30:26;;;;;;;15.77;4.40;;;8.60;99.90;;;;;;5078573;28;20025;-67
2021/12/17 10:32:55;;;;;;;17.17;5.00;;;8.60;99.90;;;;;;5072847;28;20024;-67
2021/12/17 10:35:26;;;;;;;16.55;4.45;;;8.50;99.90;;;;;;5063897;28;20044;-65
2021/12/17 10:38:03;;;;;;;17.60;3.72;;;8.40;99.90;;;;;;5071373;28;20028;-65
2021/12/17 10:40:37;;;;;;;13.45;4.00;;;8.40;99.90;;;;;;5067672;28;20024;-65
2021/12/17 10:43:25;;;;;;;11.15;4.93;;;8.40;99.90;;;;;;5072778;28;20503;-65
2021/12/17 10:46:09;;;;;;;16.35;3.97;;;8.60;99.90;;;;;;5073554;28;20018;-65
2021/12/17 10:51:21;;;;;;;12.57;4.40;;;8.50;99.90;;;;;;5074075;28;20021;-65
2021/12/17 10:53:55;;;;;;;17.98;4.50;;;8.50;99.90;;;;;;5065830;28;20077;-65
2021/12/17 10:56:27;;;;;;;12.65;3.38;;;8.50;99.90;;;;;;5073295;28;20035;-65
2021/12/17 10:58:58;;;;;;;15.93;4.68;;;8.50;99.90;;;;;;5073198;28;20024;-65
2021/12/17 11:01:45;;;;;;;15.10;3.67;;;8.40;99.90;;;;;;5066961;28;20126;-65
2021/12/17 11:04:29;;;;;;;10.50;3.15;;;8.50;99.90;;;;;;5070346;28;20546;-65
2021/12/17 11:07:10;;;;;;;14.45;3.50;;;8.50;99.90;;;;;;5074253;28;20023;-65
2021/12/17 11:09:45;;;;;;;9.52;2.97;;;8.50;99.90;;;;;;5076156;28;20024;-65
2021/12/17 11:12:13;;;;;;;8.07;2.47;;;8.40;99.90;;;;;;5067868;28;20024;-66
2021/12/17 11:14:39;;;;;;;13.45;3.33;;;8.50;99.90;;;;;;5072521;28;20214;-65
2021/12/17 11:17:05;;;;;;;14.07;3.67;;;8.50;99.90;;;;;;5065256;28;20640;-65
2021/12/17 11:19:32;;;;;;;7.57;2.45;;;8.40;99.90;;;;;;5068569;28;20044;-65
2021/12/17 11:21:59;;;;;;;6.88;2.35;;;8.50;99.90;;;;;;5068784;28;20499;-67
2021/12/17 11:24:25;;;;;;;6.70;2.70;;;8.40;99.90;;;;;;5066171;28;20033;-65
2021/12/17 11:26:52;;;;;;;8.82;2.42;;;8.50;99.90;;;;;;5063797;28;20025;-65
2021/12/17 11:29:17;;;;;;;4.13;1.77;;;8.40;99.90;;;;;;5069955;28;20044;-65
2021/12/17 11:31:43;;;;;;;3.35;1.55;;;8.30;99.90;;;;;;5069901;28;20090;-65
2021/12/17 11:34:10;;;;;;;3.55;1.42;;;8.20;99.90;;;;;;5071076;28;20032;-65
2021/12/17 11:36:35;;;;;;;3.15;1.17;;;8.10;99.90;;;;;;5073375;28;20518;-65
2021/12/17 11:39:22;;;;;;;3.30;1.30;;;8.10;99.90;;;;;;5070013;28;20052;-65
2021/12/17 11:42:28;;;;;;;3.60;1.48;;;8.20;99.90;;;;;;5073985;28;20448;-66
2021/12/17 11:45:41;;;;;;;3.08;1.35;;;8.30;99.90;;;;;;5071452;28;20119;-65
2021/12/17 11:47:42;;;;;;;3.75;1.45;;;8.20;99.90;;;;;;5062795;28;20044;-65
2021/12/17 11:50:10;;;;;;;3.35;1.98;;;8.20;99.90;;;;;;5069039;28;20399;-65
2021/12/17 11:52:40;;;;;;;5.35;1.95;;;8.20;99.90;;;;;;5064817;28;20086;-65
2021/12/17 11:55:33;;;;;;;8.48;1.73;;;8.30;99.90;;;;;;5068872;28;20027;-65
2021/12/17 11:58:01;;;;;;;5.95;1.70;;;8.40;99.90;;;;;;5069638;28;20119;-65
2021/12/17 12:00:49;;;;;;;2.85;1.20;;;8.40;99.90;;;;;;5069863;28;20399;-65
2021/12/17 12:03:19;;;;;;;4.43;1.65;;;8.50;99.90;;;;;;5064068;28;20032;-65
2021/12/17 12:05:49;;;;;;;6.57;2.03;;;8.50;99.90;;;;;;5069685;28;20028;-65
2021/12/17 12:08:37;;;;;;;8.85;1.90;;;8.50;99.90;;;;;;5069514;28;20032;-65
2021/12/17 12:11:17;;;;;;;5.60;1.75;;;8.50;99.90;;;;;;5066652;28;20048;-65
2021/12/17 12:13:51;;;;;;;7.78;2.63;;;8.60;99.90;;;;;;5065766;28;20030;-65
2021/12/17 12:16:30;;;;;;;11.27;2.50;;;8.70;99.90;;;;;;5068318;28;20043;-65
2021/12/17 12:19:07;;;;;;;7.03;1.95;;;8.60;99.90;;;;;;5068760;28;20059;-66
2021/12/17 12:21:36;;;;;;;3.08;1.35;;;8.70;99.90;;;;;;5070993;28;20040;-65
2021/12/17 12:24:13;;;;;;;5.35;1.98;;;8.50;99.90;;;;;;5064256;28;20025;-65
2021/12/17 12:26:43;;;;;;;10.77;2.05;;;8.40;99.90;;;;;;5070929;28;20024;-66
2021/12/17 12:29:15;;;;;;;5.25;2.08;;;8.30;99.90;;;;;;5073695;28;20025;-66
2021/12/17 12:31:48;;;;;;;5.40;1.85;;;8.40;99.90;;;;;;5074730;28;20035;-66
2021/12/17 12:34:20;;;;;;;5.55;1.95;;;8.40;99.90;;;;;;5069564;28;20028;-65
2021/12/17 12:37:04;;;;;;;5.93;1.73;;;8.40;99.90;;;;;;5072536;28;20028;-65
2021/12/17 12:39:50;;;;;;;9.35;2.83;;;8.30;99.90;;;;;;5064511;28;20035;-65
2021/12/17 12:42:23;;;;;;;6.82;2.67;;;8.20;99.90;;;;;;5067803;28;20016;-66
2021/12/17 12:44:48;;;;;;;8.18;2.85;;;8.20;99.90;;;;;;5068757;28;20038;-66
2021/12/17 12:47:34;;;;;;;8.73;2.75;;;8.20;99.90;;;;;;5063280;28;20024;-65
2021/12/17 12:50:03;;;;;;;10.32;2.60;;;8.10;99.90;;;;;;5066726;28;20119;-66
2021/12/17 12:52:32;;;;;;;10.20;3.17;;;8.10;99.90;;;;;;5073070;28;20033;-66
2021/12/17 12:55:01;;;;;;;7.55;2.63;;;8.10;99.90;;;;;;5072892;28;20028;-66
2021/12/17 12:57:28;;;;;;;12.00;3.08;;;8.10;99.90;;;;;;5078095;28;20055;-66
2021/12/17 12:59:57;;;;;;;9.15;2.85;;;8.10;99.90;;;;;;5080997;28;20023;-65
2021/12/17 13:02:27;;;;;;;7.93;2.75;;;8.20;99.90;;;;;;5076491;28;20020;-66
2021/12/17 13:04:54;;;;;;;;;;;8.20;99.90;;;;;;5079442;28;20059;-66
2021/12/17 13:07:41;;;;;;;11.40;4.10;;;8.20;99.90;;;;;;5074774;28;20010;-66
2021/12/17 13:10:19;;;;;;;7.93;3.03;;;8.00;99.90;;;;;;5076025;28;20419;-66
2021/12/17 13:13:10;;;;;;;15.95;4.22;;;8.10;99.90;;;;;;5074114;28;20495;-66
2021/12/17 13:15:45;;;;;;;8.38;2.92;;;8.20;99.90;;;;;;5079382;28;20026;-66
2021/12/17 13:24:13;;;;;;;13.07;5.03;;;8.10;99.90;;;;;;5064425;28;20028;-66
2021/12/17 13:27:09;;;;;;;9.48;3.45;;;8.10;99.90;;;;;;5065044;28;20289;-65
2021/12/17 13:29:38;;;;;;;20.17;3.88;;;8.20;99.90;;;;;;5067780;28;20032;-66
2021/12/17 13:32:06;;;;;;;11.25;3.83;;;8.20;99.90;;;;;;5061211;28;20024;-65
2021/12/17 13:34:42;;;;;;;12.10;3.65;;;8.20;99.90;;;;;;5058166;28;20680;-66
2021/12/17 13:37:19;;;;;;;11.90;3.17;;;8.20;99.90;;;;;;5064001;28;20032;-66
2021/12/17 13:39:55;;;;;;;7.60;2.80;;;8.20;99.90;;;;;;5063431;28;20039;-65
2021/12/17 13:42:25;;;;;;;12.73;3.58;;;8.30;99.90;;;;;;5061831;28;20111;-66
2021/12/17 13:44:55;;;;;;;9.77;2.65;;;8.30;99.90;;;;;;5063195;28;20036;-67
2021/12/17 13:47:46;;;;;;;6.78;2.50;;;8.30;99.90;;;;;;5045162;28;20060;-66
2021/12/17 13:50:33;;;;;;;9.27;2.95;;;8.40;99.90;;;;;;5071999;28;20059;-65
2021/12/17 13:53:03;;;;;;;5.90;2.00;;;8.30;99.90;;;;;;5069892;28;20052;-65
2021/12/17 13:55:40;;;;;;;7.45;2.78;;;8.30;99.90;;;;;;5067979;28;20567;-66
2021/12/17 13:58:11;;;;;;;5.97;2.72;;;8.10;99.90;;;;;;5079883;28;20040;-65
2021/12/17 14:00:42;;;;;;;7.03;2.08;;;8.20;99.90;;;;;;5070070;28;20043;-66
2021/12/17 14:03:14;;;;;;;7.40;2.35;;;8.20;99.90;;;;;;5069574;28;20028;-66
2021/12/17 14:05:44;;;;;;;6.53;2.50;;;8.10;99.90;;;;;;5071503;28;20056;-66
2021/12/17 14:08:14;;;;;;;5.63;1.98;;;8.10;99.90;;;;;;5070298;28;20484;-66
2021/12/17 14:10:41;;;;;;;;;;;8.10;99.90;;;;;;5069019;28;20066;-66
2021/12/17 14:13:19;;;;;;;6.43;2.35;;;8.10;99.90;;;;;;5075518;28;20438;-66
2021/12/17 14:15:45;;;;;;;7.22;2.25;;;8.00;99.90;;;;;;5080808;28;20024;-66
2021/12/17 14:18:14;;;;;;;4.55;1.73;;;8.10;99.90;;;;;;5073674;28;20055;-66
2021/12/17 14:20:42;;;;;;;7.03;2.20;;;8.10;99.90;;;;;;5070159;28;20043;-66
2021/12/17 14:23:11;;;;;;;3.53;1.52;;;8.20;99.90;;;;;;5066062;28;20016;-66
2021/12/17 14:25:40;;;;;;;7.25;2.72;;;8.30;99.90;;;;;;5069840;28;20099;-66
2021/12/17 14:28:40;;;;;;;9.02;2.63;;;8.10;99.90;;;;;;5067379;28;20025;-66
2021/12/17 14:31:13;;;;;;;4.80;1.98;;;8.00;99.90;;;;;;5041055;28;20036;-67
2021/12/17 14:33:43;;;;;;;3.72;1.65;;;8.00;99.90;;;;;;5067586;28;20028;-66
2021/12/17 14:36:17;;;;;;;6.10;1.88;;;8.00;99.90;;;;;;5067751;28;20035;-67
2021/12/17 14:38:58;;;;;;;5.32;1.70;;;7.90;99.90;;;;;;5071383;28;20031;-67
2021/12/17 14:41:35;;;;;;;5.75;2.15;;;7.90;99.90;;;;;;5069392;28;20032;-67
2021/12/17 14:44:18;;;;;;;7.38;2.30;;;8.00;99.90;;;;;;5072979;28;20028;-66
2021/12/17 14:46:51;;;;;;;8.25;2.47;;;8.10;99.90;;;;;;5073290;28;20134;-67
2021/12/17 15:03:43;;;;;;;6.57;2.63;;;8.10;99.90;;;;;;5066338;28;20036;-67
2021/12/17 15:06:15;;;;;;;6.85;2.30;;;8.10;99.90;;;;;;5069420;28;20024;-67
2021/12/17 15:08:42;;;;;;;7.53;2.42;;;8.10;99.90;;;;;;5062064;28;20020;-67
2021/12/17 15:11:30;;;;;;;5.22;2.22;;;8.10;99.90;;;;;;5070680;28;20520;-67
2021/12/17 15:13:56;;;;;;;8.57;3.08;;;8.20;99.90;;;;;;5068613;28;20119;-67
2021/12/17 15:16:22;;;;;;;5.18;1.60;;;8.20;99.90;;;;;;5070607;28;20510;-67
2021/12/17 15:18:47;;;;;;;7.03;2.10;;;8.20;99.90;;;;;;5071903;28;20113;-67
2021/12/17 15:21:13;;;;;;;8.95;2.40;;;8.00;99.90;;;;;;5071408;28;20433;-67
2021/12/17 15:23:38;;;;;;;9.63;2.35;;;7.90;99.90;;;;;;5070853;28;20032;-67
2021/12/17 15:26:04;;;;;;;7.05;2.28;;;7.90;99.90;;;;;;5072642;28;20103;-66
2021/12/17 15:28:30;;;;;;;7.70;2.42;;;7.80;99.90;;;;;;5063869;28;20546;-67
2021/12/17 15:31:02;;;;;;;5.05;1.98;;;7.70;99.90;;;;;;5083161;28;20025;-66
2021/12/17 15:33:28;;;;;;;6.82;2.25;;;7.70;99.90;;;;;;5073980;28;20030;-66
2021/12/17 15:35:54;;;;;;;6.85;2.58;;;7.80;99.90;;;;;;5066688;28;20416;-66
2021/12/17 15:38:23;;;;;;;7.72;2.53;;;7.80;99.90;;;;;;5067635;28;20146;-67
2021/12/17 15:40:50;;;;;;;7.35;3.00;;;7.80;99.90;;;;;;5074417;28;20024;-67
2021/12/17 15:43:17;;;;;;;7.15;2.53;;;7.80;99.90;;;;;;5072813;28;20027;-67
2021/12/17 15:45:46;;;;;;;9.20;2.85;;;7.90;99.90;;;;;;5072406;28;20116;-67
2021/12/17 15:48:14;;;;;;;9.98;2.47;;;7.80;99.90;;;;;;5072662;28;20031;-67
2021/12/17 15:50:40;;;;;;;15.63;3.50;;;7.60;99.90;;;;;;5069912;28;20067;-66
2021/12/17 15:53:06;;;;;;;7.60;2.58;;;7.60;99.90;;;;;;5067443;28;20052;-66